createdAt,value
2019-02-20T00:26:43.626Z,1016.52
2019-02-20T00:26:44.197Z,1016.53
2019-02-20T00:26:44.807Z,1016.51
2019-02-20T00:26:45.395Z,1016.51
2019-02-20T00:26:45.994Z,1016.50
2019-02-20T00:26:46.593Z,1016.52
2019-02-20T00:26:47.198Z,1016.50
2019-02-20T00:28:31.762Z,1016.49
2019-02-20T00:28:32.332Z,1016.49
2019-02-20T00:28:32.955Z,1016.51
2019-02-20T00:28:33.531Z,1016.49
2019-02-20T00:28:34.130Z,1016.45
2019-02-20T00:28:34.730Z,1016.48
2019-02-20T00:28:35.341Z,1016.45
2019-02-20T00:28:35.930Z,1016.47
2019-02-20T00:30:06.546Z,1016.55
2019-02-20T00:30:07.063Z,1016.54
2019-02-20T00:30:07.656Z,1016.53
2019-02-20T00:30:08.254Z,1016.51
2019-02-20T00:30:08.856Z,1016.52
2019-02-20T00:30:09.462Z,1016.52
2019-02-20T00:30:10.064Z,1016.55
2019-02-20T00:30:10.654Z,1016.52
2019-02-20T00:30:11.250Z,1016.52
2019-02-20T00:30:11.862Z,1016.49
2019-02-20T00:30:12.452Z,1016.51
2019-02-20T00:30:13.055Z,1016.49
2019-02-20T00:30:13.648Z,1016.46
2019-02-20T00:31:24.717Z,1016.45
2019-02-20T00:31:25.288Z,1016.46
2019-02-20T00:31:25.887Z,1016.43
2019-02-20T00:31:26.487Z,1016.44
2019-02-20T00:31:27.087Z,1016.40
2019-02-20T00:31:27.687Z,1016.42
2019-02-20T00:31:28.287Z,1016.47
2019-02-20T00:31:28.892Z,1016.44
2019-02-20T00:31:29.486Z,1016.45
2019-02-20T00:31:30.088Z,1016.42
2019-02-20T00:31:30.687Z,1016.40
2019-02-20T00:31:31.288Z,1016.43
2019-02-20T00:32:30.765Z,1016.47
2019-02-20T00:32:31.347Z,1016.46
2019-02-20T00:32:31.940Z,1016.46
2019-02-20T00:32:32.537Z,1016.50
2019-02-20T00:32:33.138Z,1016.46
2019-02-20T00:32:33.735Z,1016.46
2019-02-20T00:32:34.347Z,1016.47
2019-02-20T00:32:34.941Z,1016.48
2019-02-20T00:32:35.536Z,1016.46
2019-02-20T00:32:36.136Z,1016.45
2019-02-20T00:32:36.735Z,1016.43
2019-02-20T00:32:37.337Z,1016.44
2019-02-20T00:32:37.934Z,1016.44
2019-02-20T00:32:38.539Z,1016.46
2019-02-20T00:32:39.135Z,1016.44
2019-02-20T00:32:39.737Z,1016.44
2019-02-20T00:32:40.346Z,1016.46
2019-02-20T00:33:37.328Z,1016.48
2019-02-20T00:33:37.902Z,1016.45
2019-02-20T00:33:38.497Z,1016.48
2019-02-20T00:34:33.543Z,1016.52
2019-02-20T00:34:34.117Z,1016.47
2019-02-20T00:34:34.717Z,1016.48
2019-02-20T00:34:35.315Z,1016.50
2019-02-20T00:34:35.915Z,1016.52
2019-02-20T00:34:36.515Z,1016.52
2019-02-20T00:35:30.582Z,1016.47
2019-02-20T00:35:31.155Z,1016.44
2019-02-20T00:35:31.756Z,1016.49
2019-02-20T00:35:32.363Z,1016.52
2019-02-20T00:35:32.955Z,1016.48
2019-02-20T00:35:33.554Z,1016.49
2019-02-20T00:35:34.158Z,1016.47
2019-02-20T00:35:34.754Z,1016.50
2019-02-20T00:36:29.771Z,1016.44
2019-02-20T00:36:30.340Z,1016.49
2019-02-20T00:36:30.942Z,1016.47
2019-02-20T00:36:31.541Z,1016.47
2019-02-20T00:36:32.140Z,1016.44
2019-02-20T00:36:32.744Z,1016.47
2019-02-20T00:36:33.341Z,1016.48
2019-02-20T00:37:26.809Z,1016.47
2019-02-20T00:37:27.382Z,1016.46
2019-02-20T00:37:27.989Z,1016.44
2019-02-20T00:37:28.580Z,1016.43
2019-02-20T00:37:29.179Z,1016.44
2019-02-20T00:37:29.782Z,1016.46
2019-02-20T00:37:30.382Z,1016.48
2019-02-20T00:37:30.979Z,1016.43
2019-02-20T00:38:26.003Z,1016.38
2019-02-20T00:38:26.569Z,1016.44
2019-02-20T00:38:27.166Z,1016.42
2019-02-20T00:38:27.765Z,1016.41
2019-02-20T00:38:28.366Z,1016.39
2019-02-20T00:38:28.966Z,1016.39
2019-02-20T00:38:29.565Z,1016.39
2019-02-20T00:39:24.056Z,1016.44
2019-02-20T00:39:24.628Z,1016.41
2019-02-20T00:39:25.228Z,1016.43
2019-02-20T00:39:25.827Z,1016.42
2019-02-20T00:39:26.427Z,1016.41
2019-02-20T00:39:27.028Z,1016.42
2019-02-20T00:39:27.627Z,1016.43
2019-02-20T00:39:28.228Z,1016.41
2019-02-20T00:40:22.746Z,1016.39
2019-02-20T00:40:23.305Z,1016.37
2019-02-20T00:40:23.907Z,1016.39
2019-02-20T00:40:24.504Z,1016.42
2019-02-20T00:40:25.104Z,1016.43
2019-02-20T00:40:25.705Z,1016.37
2019-02-20T00:40:26.303Z,1016.38
2019-02-20T00:40:26.904Z,1016.39
2019-02-20T00:41:20.393Z,1016.46
2019-02-20T00:41:20.955Z,1016.47
2019-02-20T00:41:21.554Z,1016.43
2019-02-20T00:41:22.155Z,1016.42
2019-02-20T00:41:22.770Z,1016.44
2019-02-20T00:41:23.356Z,1016.41
2019-02-20T00:41:23.954Z,1016.41
2019-02-20T00:41:24.556Z,1016.44
2019-02-20T00:42:18.038Z,1016.42
2019-02-20T00:42:18.610Z,1016.41
2019-02-20T00:42:19.209Z,1016.41
2019-02-20T00:42:19.808Z,1016.42
2019-02-20T00:42:20.406Z,1016.41
2019-02-20T00:42:21.007Z,1016.44
2019-02-20T00:42:21.607Z,1016.44
2019-02-20T00:42:22.215Z,1016.41
2019-02-20T00:43:16.716Z,1016.43
2019-02-20T00:43:17.286Z,1016.39
2019-02-20T00:43:17.893Z,1016.40
2019-02-20T00:43:18.482Z,1016.42
2019-02-20T00:43:19.085Z,1016.42
2019-02-20T00:43:19.690Z,1016.43
2019-02-20T00:43:20.282Z,1016.40
2019-02-20T00:43:20.885Z,1016.44
2019-02-20T00:44:14.365Z,1016.47
2019-02-20T00:44:14.935Z,1016.48
2019-02-20T00:44:15.538Z,1016.47
2019-02-20T00:44:16.138Z,1016.45
2019-02-20T00:44:16.735Z,1016.47
2019-02-20T00:44:17.334Z,1016.49
2019-02-20T00:44:17.934Z,1016.49
2019-02-20T00:44:18.534Z,1016.50
2019-02-20T00:45:13.043Z,1016.54
2019-02-20T00:45:13.615Z,1016.54
2019-02-20T00:45:14.211Z,1016.54
2019-02-20T00:45:14.809Z,1016.53
2019-02-20T00:45:15.410Z,1016.60
2019-02-20T00:45:16.010Z,1016.56
2019-02-20T00:45:16.610Z,1016.50
2019-02-20T00:45:17.209Z,1016.52
2019-02-20T00:46:11.204Z,1016.55
2019-02-20T00:46:11.775Z,1016.59
2019-02-20T00:46:12.374Z,1016.59
2019-02-20T00:46:12.977Z,1016.54
2019-02-20T00:46:13.574Z,1016.56
2019-02-20T00:46:14.177Z,1016.56
2019-02-20T00:46:14.776Z,1016.55
2019-02-20T00:47:08.345Z,1016.58
2019-02-20T00:47:08.915Z,1016.55
2019-02-20T00:47:09.516Z,1016.55
2019-02-20T00:47:10.116Z,1016.58
2019-02-20T00:47:10.716Z,1016.55
2019-02-20T00:47:11.316Z,1016.59
2019-02-20T00:47:11.916Z,1016.59
2019-02-20T00:47:12.515Z,1016.57
2019-02-20T00:48:08.558Z,1016.61
2019-02-20T00:48:09.126Z,1016.59
2019-02-20T00:48:09.725Z,1016.63
2019-02-20T00:48:10.328Z,1016.62
2019-02-20T00:48:10.927Z,1016.65
2019-02-20T00:48:11.526Z,1016.63
2019-02-20T00:49:05.599Z,1016.61
2019-02-20T00:49:06.164Z,1016.63
2019-02-20T00:49:06.764Z,1016.60
2019-02-20T00:49:07.369Z,1016.59
2019-02-20T00:49:07.965Z,1016.61
2019-02-20T00:49:08.565Z,1016.59
2019-02-20T00:49:09.164Z,1016.57
2019-02-20T00:49:09.763Z,1016.62
2019-02-20T00:50:04.267Z,1016.67
2019-02-20T00:50:04.840Z,1016.64
2019-02-20T00:50:05.440Z,1016.68
2019-02-20T00:50:06.042Z,1016.65
2019-02-20T00:50:06.638Z,1016.63
2019-02-20T00:50:07.242Z,1016.64
2019-02-20T00:50:07.838Z,1016.65
2019-02-20T00:50:08.438Z,1016.65
2019-02-20T00:51:02.429Z,1016.64
2019-02-20T00:51:03.007Z,1016.67
2019-02-20T00:51:03.603Z,1016.67
2019-02-20T00:51:04.203Z,1016.67
2019-02-20T00:51:04.806Z,1016.68
2019-02-20T00:51:05.410Z,1016.62
2019-02-20T00:51:06.002Z,1016.63
2019-02-20T00:51:59.615Z,1016.68
2019-02-20T00:52:00.155Z,1016.67
2019-02-20T00:52:00.745Z,1016.59
2019-02-20T00:52:01.372Z,1016.66
2019-02-20T00:52:01.942Z,1016.63
2019-02-20T00:52:02.542Z,1016.64
2019-02-20T00:52:03.143Z,1016.64
2019-02-20T00:52:03.745Z,1016.67
2019-02-20T00:52:57.223Z,1016.58
2019-02-20T00:52:57.798Z,1016.66
2019-02-20T00:52:58.397Z,1016.65
2019-02-20T00:52:59.010Z,1016.63
2019-02-20T00:52:59.600Z,1016.64
2019-02-20T00:53:00.195Z,1016.65
2019-02-20T00:53:00.794Z,1016.63
2019-02-20T00:53:01.394Z,1016.61
2019-02-20T00:53:56.410Z,1016.64
2019-02-20T00:53:56.982Z,1016.63
2019-02-20T00:53:57.582Z,1016.62
2019-02-20T00:53:58.185Z,1016.60
2019-02-20T00:53:58.781Z,1016.62
2019-02-20T00:53:59.381Z,1016.62
2019-02-20T00:53:59.982Z,1016.63
2019-02-20T00:54:53.554Z,1016.64
2019-02-20T00:54:54.124Z,1016.61
2019-02-20T00:54:54.728Z,1016.63
2019-02-20T00:54:55.335Z,1016.61
2019-02-20T00:54:55.926Z,1016.58
2019-02-20T00:54:56.523Z,1016.61
2019-02-20T00:54:57.126Z,1016.62
2019-02-20T00:54:57.724Z,1016.62
2019-02-20T00:55:52.229Z,1016.67
2019-02-20T00:55:52.799Z,1016.68
2019-02-20T00:55:53.397Z,1016.67
2019-02-20T00:55:54.008Z,1016.66
2019-02-20T00:55:54.596Z,1016.67
2019-02-20T00:55:55.197Z,1016.66
2019-02-20T00:55:55.797Z,1016.67
2019-02-20T00:55:56.397Z,1016.65
2019-02-20T00:56:50.916Z,1016.68
2019-02-20T00:56:51.474Z,1016.69
2019-02-20T00:56:52.074Z,1016.71
2019-02-20T00:56:52.673Z,1016.72
2019-02-20T00:56:53.274Z,1016.67
2019-02-20T00:56:53.872Z,1016.65
2019-02-20T00:56:54.473Z,1016.71
2019-02-20T00:56:55.073Z,1016.69
2019-02-20T00:57:48.554Z,1016.70
2019-02-20T00:57:49.130Z,1016.70
2019-02-20T00:57:49.726Z,1016.75
2019-02-20T00:57:50.326Z,1016.72
2019-02-20T00:57:50.925Z,1016.72
2019-02-20T00:57:51.527Z,1016.72
2019-02-20T00:57:52.125Z,1016.73
2019-02-20T00:57:52.725Z,1016.72
2019-02-20T00:58:47.741Z,1016.75
2019-02-20T00:58:48.312Z,1016.74
2019-02-20T00:58:48.912Z,1016.71
2019-02-20T00:58:49.514Z,1016.74
2019-02-20T00:58:50.113Z,1016.70
2019-02-20T00:58:50.715Z,1016.74
2019-02-20T00:58:51.311Z,1016.76
2019-02-20T00:59:45.290Z,1016.71
2019-02-20T00:59:45.861Z,1016.76
2019-02-20T00:59:46.492Z,1016.77
2019-02-20T00:59:47.062Z,1016.76
2019-02-20T00:59:47.661Z,1016.79
2019-02-20T00:59:48.262Z,1016.79
2019-02-20T00:59:48.861Z,1016.77
2019-02-20T01:00:42.434Z,1016.75
2019-02-20T01:00:43.004Z,1016.76
2019-02-20T01:00:43.604Z,1016.78
2019-02-20T01:00:44.204Z,1016.78
2019-02-20T01:00:44.803Z,1016.76
2019-02-20T01:00:45.405Z,1016.78
2019-02-20T01:00:46.006Z,1016.76
2019-02-20T01:00:46.602Z,1016.76
2019-02-20T01:01:40.082Z,1016.76
2019-02-20T01:01:40.657Z,1016.78
2019-02-20T01:01:41.254Z,1016.78
2019-02-20T01:01:41.854Z,1016.77
2019-02-20T01:01:42.453Z,1016.79
2019-02-20T01:01:43.055Z,1016.76
2019-02-20T01:01:43.653Z,1016.80
2019-02-20T01:01:44.254Z,1016.78
2019-02-20T01:02:38.758Z,1016.78
2019-02-20T01:02:39.330Z,1016.77
2019-02-20T01:02:39.928Z,1016.71
2019-02-20T01:02:40.531Z,1016.69
2019-02-20T01:02:41.129Z,1016.74
2019-02-20T01:02:41.729Z,1016.74
2019-02-20T01:02:42.329Z,1016.76
2019-02-20T01:02:42.932Z,1016.77
2019-02-20T01:03:36.409Z,1016.76
2019-02-20T01:03:36.982Z,1016.78
2019-02-20T01:03:37.589Z,1016.79
2019-02-20T01:03:38.182Z,1016.77
2019-02-20T01:03:38.785Z,1016.75
2019-02-20T01:03:39.384Z,1016.76
2019-02-20T01:03:39.987Z,1016.76
2019-02-20T01:03:40.581Z,1016.75
2019-02-20T01:04:35.085Z,1016.72
2019-02-20T01:04:35.658Z,1016.77
2019-02-20T01:04:36.265Z,1016.80
2019-02-20T01:04:36.857Z,1016.77
2019-02-20T01:04:37.457Z,1016.76
2019-02-20T01:04:38.064Z,1016.76
2019-02-20T01:04:38.659Z,1016.73
2019-02-20T01:04:39.257Z,1016.76
2019-02-20T01:05:34.273Z,1016.76
2019-02-20T01:05:34.846Z,1016.75
2019-02-20T01:05:35.445Z,1016.74
2019-02-20T01:05:36.045Z,1016.76
2019-02-20T01:05:36.644Z,1016.77
2019-02-20T01:05:37.246Z,1016.72
2019-02-20T01:05:37.845Z,1016.74
2019-02-20T01:06:31.415Z,1016.73
2019-02-20T01:06:31.986Z,1016.70
2019-02-20T01:06:32.586Z,1016.69
2019-02-20T01:06:33.185Z,1016.69
2019-02-20T01:06:33.785Z,1016.73
2019-02-20T01:06:34.390Z,1016.69
2019-02-20T01:06:34.985Z,1016.74
2019-02-20T01:06:35.585Z,1016.74
2019-02-20T01:07:29.064Z,1016.72
2019-02-20T01:07:29.639Z,1016.71
2019-02-20T01:07:30.237Z,1016.72
2019-02-20T01:07:30.837Z,1016.71
2019-02-20T01:07:31.440Z,1016.72
2019-02-20T01:07:32.037Z,1016.74
2019-02-20T01:07:32.637Z,1016.72
2019-02-20T01:07:33.238Z,1016.72
2019-02-20T01:08:26.716Z,1016.76
2019-02-20T01:08:27.289Z,1016.74
2019-02-20T01:08:27.888Z,1016.73
2019-02-20T01:08:28.487Z,1016.73
2019-02-20T01:08:29.088Z,1016.76
2019-02-20T01:08:29.691Z,1016.72
2019-02-20T01:08:30.288Z,1016.75
2019-02-20T01:08:30.890Z,1016.69
2019-02-20T01:09:24.381Z,1016.76
2019-02-20T01:09:24.941Z,1016.75
2019-02-20T01:09:25.548Z,1016.74
2019-02-20T01:09:26.140Z,1016.73
2019-02-20T01:09:26.741Z,1016.72
2019-02-20T01:09:27.340Z,1016.74
2019-02-20T01:09:27.940Z,1016.77
2019-02-20T01:09:28.584Z,1016.71
2019-02-20T01:10:23.044Z,1016.73
2019-02-20T01:10:23.618Z,1016.74
2019-02-20T01:10:24.215Z,1016.73
2019-02-20T01:10:24.815Z,1016.77
2019-02-20T01:10:25.416Z,1016.72
2019-02-20T01:10:26.017Z,1016.77
2019-02-20T01:10:26.615Z,1016.71
2019-02-20T01:10:27.217Z,1016.73
2019-02-20T01:11:21.720Z,1016.71
2019-02-20T01:11:22.292Z,1016.74
2019-02-20T01:11:22.890Z,1016.72
2019-02-20T01:11:23.491Z,1016.73
2019-02-20T01:11:24.090Z,1016.74
2019-02-20T01:11:24.691Z,1016.75
2019-02-20T01:11:25.292Z,1016.71
2019-02-20T01:11:25.890Z,1016.73
2019-02-20T01:12:20.907Z,1016.77
2019-02-20T01:12:21.479Z,1016.75
2019-02-20T01:12:22.079Z,1016.79
2019-02-20T01:12:22.679Z,1016.79
2019-02-20T01:12:23.278Z,1016.76
2019-02-20T01:12:23.879Z,1016.78
2019-02-20T01:12:24.477Z,1016.77
2019-02-20T01:13:19.487Z,1016.72
2019-02-20T01:13:20.052Z,1016.69
2019-02-20T01:13:20.652Z,1016.67
2019-02-20T01:13:21.251Z,1016.72
2019-02-20T01:13:21.850Z,1016.69
2019-02-20T01:13:22.452Z,1016.70
2019-02-20T01:13:23.052Z,1016.70
2019-02-20T01:14:17.543Z,1016.67
2019-02-20T01:14:18.117Z,1016.68
2019-02-20T01:14:18.713Z,1016.71
2019-02-20T01:14:19.311Z,1016.68
2019-02-20T01:14:19.920Z,1016.70
2019-02-20T01:14:20.511Z,1016.69
2019-02-20T01:14:21.111Z,1016.68
2019-02-20T01:14:21.710Z,1016.64
2019-02-20T01:15:16.729Z,1016.72
2019-02-20T01:15:17.300Z,1016.68
2019-02-20T01:15:17.913Z,1016.73
2019-02-20T01:15:18.514Z,1016.73
2019-02-20T01:15:19.102Z,1016.74
2019-02-20T01:15:19.702Z,1016.75
2019-02-20T01:15:20.303Z,1016.74
2019-02-20T01:16:13.872Z,1016.71
2019-02-20T01:16:14.441Z,1016.70
2019-02-20T01:16:15.043Z,1016.69
2019-02-20T01:16:15.641Z,1016.70
2019-02-20T01:16:16.246Z,1016.69
2019-02-20T01:16:16.843Z,1016.73
2019-02-20T01:16:17.441Z,1016.69
2019-02-20T01:16:18.041Z,1016.71
2019-02-20T01:17:11.521Z,1016.71
2019-02-20T01:17:12.094Z,1016.72
2019-02-20T01:17:12.699Z,1016.68
2019-02-20T01:17:13.293Z,1016.71
2019-02-20T01:17:13.893Z,1016.72
2019-02-20T01:17:14.508Z,1016.71
2019-02-20T01:17:15.092Z,1016.73
2019-02-20T01:17:15.692Z,1016.71
2019-02-20T01:18:09.173Z,1016.68
2019-02-20T01:18:09.747Z,1016.71
2019-02-20T01:18:10.347Z,1016.68
2019-02-20T01:18:10.946Z,1016.67
2019-02-20T01:18:11.544Z,1016.69
2019-02-20T01:18:12.150Z,1016.64
2019-02-20T01:18:12.744Z,1016.70
2019-02-20T01:18:13.355Z,1016.68
2019-02-20T01:19:07.848Z,1016.73
2019-02-20T01:19:08.421Z,1016.70
2019-02-20T01:19:09.019Z,1016.75
2019-02-20T01:19:09.619Z,1016.66
2019-02-20T01:19:10.221Z,1016.70
2019-02-20T01:19:10.818Z,1016.69
2019-02-20T01:19:11.420Z,1016.68
2019-02-20T01:19:12.020Z,1016.67
2019-02-20T01:20:06.014Z,1016.78
2019-02-20T01:20:06.587Z,1016.78
2019-02-20T01:20:07.183Z,1016.74
2019-02-20T01:20:07.784Z,1016.76
2019-02-20T01:20:08.383Z,1016.74
2019-02-20T01:20:08.982Z,1016.76
2019-02-20T01:20:09.590Z,1016.76
2019-02-20T01:21:06.124Z,1016.77
2019-02-20T01:21:06.693Z,1016.77
2019-02-20T01:21:07.292Z,1016.72
2019-02-20T01:22:00.804Z,1016.76
2019-02-20T01:22:01.375Z,1016.73
2019-02-20T01:22:01.975Z,1016.72
2019-02-20T01:22:02.576Z,1016.78
2019-02-20T01:22:03.180Z,1016.76
2019-02-20T01:22:03.772Z,1016.74
2019-02-20T01:22:04.374Z,1016.77
2019-02-20T01:22:04.973Z,1016.79
2019-02-20T01:23:00.292Z,1016.73
2019-02-20T01:23:00.475Z,1016.74
2019-02-20T01:23:00.658Z,1016.77
2019-02-20T01:23:01.253Z,1016.73
2019-02-20T01:23:01.851Z,1016.76
2019-02-20T01:23:02.452Z,1016.80
2019-02-20T01:23:03.051Z,1016.77
2019-02-20T01:23:03.653Z,1016.75
2019-02-20T01:23:57.131Z,1016.76
2019-02-20T01:23:57.704Z,1016.75
2019-02-20T01:23:58.304Z,1016.79
2019-02-20T01:23:58.908Z,1016.74
2019-02-20T01:23:59.503Z,1016.77
2019-02-20T01:24:00.103Z,1016.77
2019-02-20T01:24:00.704Z,1016.75
2019-02-20T01:24:01.306Z,1016.74
2019-02-20T01:24:56.319Z,1016.79
2019-02-20T01:24:56.891Z,1016.75
2019-02-20T01:24:57.495Z,1016.76
2019-02-20T01:24:58.089Z,1016.77
2019-02-20T01:24:58.703Z,1016.78
2019-02-20T01:24:59.292Z,1016.73
2019-02-20T01:25:54.277Z,1016.78
2019-02-20T01:25:54.850Z,1016.80
2019-02-20T01:25:55.451Z,1016.78
2019-02-20T01:25:56.049Z,1016.80
2019-02-20T01:25:56.651Z,1016.80
2019-02-20T01:25:57.253Z,1016.82
2019-02-20T01:25:57.847Z,1016.77
2019-02-20T01:25:58.449Z,1016.78
2019-02-20T01:26:52.955Z,1016.85
2019-02-20T01:26:53.527Z,1016.83
2019-02-20T01:26:54.127Z,1016.80
2019-02-20T01:26:54.725Z,1016.79
2019-02-20T01:26:55.323Z,1016.82
2019-02-20T01:26:55.925Z,1016.80
2019-02-20T01:26:56.524Z,1016.81
2019-02-20T01:26:57.123Z,1016.83
2019-02-20T01:27:51.120Z,1016.78
2019-02-20T01:27:51.689Z,1016.79
2019-02-20T01:27:52.290Z,1016.80
2019-02-20T01:27:52.889Z,1016.77
2019-02-20T01:27:53.488Z,1016.75
2019-02-20T01:27:54.089Z,1016.78
2019-02-20T01:27:54.688Z,1016.78
2019-02-20T01:28:49.691Z,1016.75
2019-02-20T01:28:50.261Z,1016.77
2019-02-20T01:28:50.862Z,1016.77
2019-02-20T01:28:51.463Z,1016.75
2019-02-20T01:28:52.062Z,1016.76
2019-02-20T01:28:52.660Z,1016.75
2019-02-20T01:28:53.262Z,1016.76
2019-02-20T01:29:47.754Z,1016.80
2019-02-20T01:29:48.335Z,1016.78
2019-02-20T01:29:48.923Z,1016.77
2019-02-20T01:29:49.524Z,1016.82
2019-02-20T01:29:50.122Z,1016.81
2019-02-20T01:29:50.722Z,1016.79
2019-02-20T01:29:51.322Z,1016.82
2019-02-20T01:29:51.921Z,1016.82
2019-02-20T01:30:45.915Z,1016.79
2019-02-20T01:30:46.487Z,1016.80
2019-02-20T01:30:47.086Z,1016.79
2019-02-20T01:30:47.686Z,1016.77
2019-02-20T01:30:48.289Z,1016.78
2019-02-20T01:30:48.891Z,1016.81
2019-02-20T01:30:49.484Z,1016.76
2019-02-20T01:31:43.055Z,1016.75
2019-02-20T01:31:43.628Z,1016.74
2019-02-20T01:31:44.228Z,1016.74
2019-02-20T01:31:44.831Z,1016.76
2019-02-20T01:31:45.428Z,1016.77
2019-02-20T01:31:46.027Z,1016.77
2019-02-20T01:31:46.632Z,1016.78
2019-02-20T01:31:47.231Z,1016.72
2019-02-20T01:32:40.707Z,1016.77
2019-02-20T01:32:41.280Z,1016.75
2019-02-20T01:32:41.883Z,1016.80
2019-02-20T01:32:42.479Z,1016.77
2019-02-20T01:32:43.078Z,1016.75
2019-02-20T01:32:43.676Z,1016.76
2019-02-20T01:32:44.277Z,1016.76
2019-02-20T01:32:44.880Z,1016.77
2019-02-20T01:33:39.892Z,1016.72
2019-02-20T01:33:40.467Z,1016.74
2019-02-20T01:33:41.066Z,1016.73
2019-02-20T01:33:41.669Z,1016.73
2019-02-20T01:33:42.267Z,1016.75
2019-02-20T01:33:42.867Z,1016.74
2019-02-20T01:33:43.465Z,1016.72
2019-02-20T01:34:37.034Z,1016.74
2019-02-20T01:34:37.606Z,1016.76
2019-02-20T01:34:38.206Z,1016.76
2019-02-20T01:34:38.808Z,1016.79
2019-02-20T01:34:39.409Z,1016.74
2019-02-20T01:34:40.008Z,1016.74
2019-02-20T01:34:40.607Z,1016.75
2019-02-20T01:34:41.207Z,1016.77
2019-02-20T01:35:35.712Z,1016.70
2019-02-20T01:35:36.283Z,1016.75
2019-02-20T01:35:36.881Z,1016.73
2019-02-20T01:35:37.480Z,1016.71
2019-02-20T01:35:38.080Z,1016.74
2019-02-20T01:35:38.680Z,1016.69
2019-02-20T01:35:39.282Z,1016.73
2019-02-20T01:35:39.878Z,1016.74
2019-02-20T01:36:33.361Z,1016.75
2019-02-20T01:36:33.934Z,1016.72
2019-02-20T01:36:34.535Z,1016.78
2019-02-20T01:36:35.132Z,1016.75
2019-02-20T01:36:35.732Z,1016.75
2019-02-20T01:36:36.337Z,1016.76
2019-02-20T01:36:36.932Z,1016.78
2019-02-20T01:36:37.533Z,1016.73
2019-02-20T01:37:31.016Z,1016.76
2019-02-20T01:37:31.586Z,1016.72
2019-02-20T01:37:32.185Z,1016.76
2019-02-20T01:37:32.788Z,1016.75
2019-02-20T01:37:33.384Z,1016.77
2019-02-20T01:37:33.986Z,1016.77
2019-02-20T01:37:34.584Z,1016.75
2019-02-20T01:37:35.185Z,1016.75
2019-02-20T01:38:29.690Z,1016.79
2019-02-20T01:38:30.268Z,1016.77
2019-02-20T01:38:30.862Z,1016.76
2019-02-20T01:38:31.463Z,1016.78
2019-02-20T01:38:32.059Z,1016.74
2019-02-20T01:38:32.662Z,1016.74
2019-02-20T01:38:33.262Z,1016.78
2019-02-20T01:38:33.863Z,1016.73
2019-02-20T01:39:27.340Z,1016.78
2019-02-20T01:39:27.914Z,1016.74
2019-02-20T01:39:28.516Z,1016.81
2019-02-20T01:39:29.113Z,1016.75
2019-02-20T01:39:29.713Z,1016.75
2019-02-20T01:39:30.321Z,1016.79
2019-02-20T01:39:30.911Z,1016.79
2019-02-20T01:39:31.517Z,1016.79
2019-02-20T01:40:25.507Z,1016.78
2019-02-20T01:40:26.075Z,1016.80
2019-02-20T01:40:26.677Z,1016.78
2019-02-20T01:40:27.276Z,1016.74
2019-02-20T01:40:27.875Z,1016.76
2019-02-20T01:40:28.475Z,1016.78
2019-02-20T01:40:29.074Z,1016.78
2019-02-20T01:43:51.432Z,1016.73
2019-02-20T01:43:52.000Z,1016.75
2019-02-20T01:43:52.600Z,1016.77
2019-02-20T01:43:53.200Z,1016.74
2019-02-20T01:43:53.799Z,1016.76
2019-02-20T01:43:54.398Z,1016.74
2019-02-20T01:43:54.998Z,1016.74
2019-02-20T01:43:55.597Z,1016.75
2019-02-20T01:43:56.197Z,1016.75
2019-02-20T01:43:56.797Z,1016.73
2019-02-20T01:43:57.399Z,1016.72
2019-02-20T01:43:58.004Z,1016.74
2019-02-20T01:44:52.057Z,1016.74
2019-02-20T01:44:52.627Z,1016.74
2019-02-20T01:44:53.226Z,1016.72
2019-02-20T01:44:53.832Z,1016.74
2019-02-20T01:44:54.424Z,1016.74
2019-02-20T01:44:55.026Z,1016.75
2019-02-20T01:44:55.625Z,1016.71
2019-02-20T01:44:56.229Z,1016.76
2019-02-20T01:45:49.745Z,1016.76
2019-02-20T01:45:50.280Z,1016.74
2019-02-20T01:45:50.891Z,1016.75
2019-02-20T01:45:51.478Z,1016.74
2019-02-20T01:45:52.080Z,1016.74
2019-02-20T01:45:52.679Z,1016.73
2019-02-20T01:45:53.277Z,1016.72
2019-02-20T01:45:53.882Z,1016.72
2019-02-20T01:46:47.358Z,1016.74
2019-02-20T01:46:47.930Z,1016.75
2019-02-20T01:46:48.529Z,1016.76
2019-02-20T01:46:49.129Z,1016.74
2019-02-20T01:46:49.729Z,1016.74
2019-02-20T01:46:50.342Z,1016.73
2019-02-20T01:46:50.928Z,1016.73
2019-02-20T01:46:51.530Z,1016.76
2019-02-20T01:47:46.042Z,1016.74
2019-02-20T01:47:46.619Z,1016.75
2019-02-20T01:47:47.206Z,1016.75
2019-02-20T01:47:47.804Z,1016.73
2019-02-20T01:47:48.404Z,1016.74
2019-02-20T01:47:49.004Z,1016.73
2019-02-20T01:47:49.606Z,1016.71
2019-02-20T01:47:50.220Z,1016.70
2019-02-20T01:48:43.690Z,1016.71
2019-02-20T01:48:44.258Z,1016.71
2019-02-20T01:48:44.858Z,1016.69
2019-02-20T01:48:45.456Z,1016.69
2019-02-20T01:48:46.061Z,1016.71
2019-02-20T01:48:46.657Z,1016.69
2019-02-20T01:48:47.257Z,1016.68
2019-02-20T01:48:47.856Z,1016.71
2019-02-20T01:49:41.337Z,1016.70
2019-02-20T01:49:41.909Z,1016.67
2019-02-20T01:49:42.509Z,1016.66
2019-02-20T01:49:43.113Z,1016.71
2019-02-20T01:49:43.709Z,1016.72
2019-02-20T01:49:44.309Z,1016.66
2019-02-20T01:49:44.907Z,1016.68
2019-02-20T01:49:45.508Z,1016.70
2019-02-20T01:50:39.500Z,1016.68
2019-02-20T01:50:40.071Z,1016.69
2019-02-20T01:50:40.671Z,1016.69
2019-02-20T01:50:41.271Z,1016.67
2019-02-20T01:50:41.871Z,1016.65
2019-02-20T01:50:42.471Z,1016.67
2019-02-20T01:50:43.070Z,1016.66
2019-02-20T01:51:37.050Z,1016.65
2019-02-20T01:51:37.621Z,1016.65
2019-02-20T01:51:38.220Z,1016.65
2019-02-20T01:51:38.824Z,1016.68
2019-02-20T01:51:39.424Z,1016.64
2019-02-20T01:51:40.022Z,1016.66
2019-02-20T01:51:40.620Z,1016.65
2019-02-20T01:52:35.155Z,1016.60
2019-02-20T01:52:35.684Z,1016.65
2019-02-20T01:52:36.281Z,1016.65
2019-02-20T01:52:36.881Z,1016.66
2019-02-20T01:52:37.482Z,1016.63
2019-02-20T01:52:38.081Z,1016.63
2019-02-20T01:52:38.679Z,1016.61
2019-02-20T01:52:39.281Z,1016.59
2019-02-20T01:53:32.762Z,1016.62
2019-02-20T01:53:33.339Z,1016.65
2019-02-20T01:53:33.936Z,1016.67
2019-02-20T01:53:34.540Z,1016.62
2019-02-20T01:53:35.136Z,1016.63
2019-02-20T01:53:35.735Z,1016.61
2019-02-20T01:53:36.333Z,1016.62
2019-02-20T01:53:36.933Z,1016.66
2019-02-20T01:54:30.415Z,1016.63
2019-02-20T01:54:30.987Z,1016.65
2019-02-20T01:54:31.586Z,1016.67
2019-02-20T01:54:32.191Z,1016.63
2019-02-20T01:54:32.784Z,1016.63
2019-02-20T01:54:33.385Z,1016.63
2019-02-20T01:54:33.985Z,1016.63
2019-02-20T01:54:34.584Z,1016.62
2019-02-20T01:55:29.089Z,1016.64
2019-02-20T01:55:29.662Z,1016.61
2019-02-20T01:55:30.261Z,1016.64
2019-02-20T01:55:30.861Z,1016.61
2019-02-20T01:55:31.461Z,1016.64
2019-02-20T01:55:32.062Z,1016.62
2019-02-20T01:55:32.660Z,1016.63
2019-02-20T01:55:33.259Z,1016.65
2019-02-20T01:56:27.256Z,1016.67
2019-02-20T01:56:27.826Z,1016.66
2019-02-20T01:56:28.425Z,1016.68
2019-02-20T01:56:29.026Z,1016.64
2019-02-20T01:56:29.624Z,1016.67
2019-02-20T01:56:30.226Z,1016.62
2019-02-20T01:56:30.825Z,1016.63
2019-02-20T01:57:25.315Z,1016.59
2019-02-20T01:57:25.896Z,1016.58
2019-02-20T01:57:26.487Z,1016.61
2019-02-20T01:57:27.090Z,1016.60
2019-02-20T01:57:27.685Z,1016.60
2019-02-20T01:57:28.299Z,1016.58
2019-02-20T01:57:28.888Z,1016.61
2019-02-20T01:57:29.485Z,1016.62
2019-02-20T01:58:22.970Z,1016.60
2019-02-20T01:58:23.539Z,1016.63
2019-02-20T01:58:24.142Z,1016.62
2019-02-20T01:58:24.738Z,1016.61
2019-02-20T01:58:25.338Z,1016.61
2019-02-20T01:58:25.939Z,1016.63
2019-02-20T01:58:26.540Z,1016.64
2019-02-20T01:58:27.138Z,1016.61
2019-02-20T01:59:20.618Z,1016.63
2019-02-20T01:59:21.227Z,1016.64
2019-02-20T01:59:21.791Z,1016.59
2019-02-20T01:59:22.392Z,1016.65
2019-02-20T01:59:22.993Z,1016.63
2019-02-20T01:59:23.595Z,1016.64
2019-02-20T01:59:24.190Z,1016.64
2019-02-20T01:59:24.789Z,1016.64
2019-02-20T02:00:18.270Z,1016.63
2019-02-20T02:00:18.845Z,1016.63
2019-02-20T02:00:19.444Z,1016.61
2019-02-20T02:00:20.042Z,1016.59
2019-02-20T02:00:20.644Z,1016.62